createdAt,value
2018-03-14T00:00:48.248Z,71.51
2018-03-14T00:03:15.648Z,72.37
2018-03-14T00:05:43.052Z,73.29
2018-03-14T00:08:10.476Z,73.63
2018-03-14T00:10:37.996Z,73.79
2018-03-14T00:13:06.210Z,74.00
2018-03-14T00:15:33.600Z,73.88
2018-03-14T00:18:01.009Z,73.91
2018-03-14T00:20:28.407Z,74.27
2018-03-14T00:22:55.808Z,74.23
2018-03-14T00:27:44.281Z,74.80
2018-03-14T00:30:11.789Z,75.28
2018-03-14T00:32:39.185Z,75.44
2018-03-14T00:35:06.596Z,75.51
2018-03-14T00:37:34.640Z,75.57
2018-03-14T00:40:02.032Z,75.37
2018-03-14T00:42:29.467Z,74.97
2018-03-14T00:44:56.864Z,74.80
2018-03-14T00:47:24.260Z,74.86
2018-03-14T00:49:52.384Z,74.79
2018-03-14T00:52:19.806Z,74.85
2018-03-14T00:54:47.214Z,74.83
2018-03-14T00:57:14.607Z,74.92
2018-03-14T00:59:42.018Z,74.80
2018-03-14T01:02:09.441Z,74.86
2018-03-14T01:04:36.863Z,74.94
2018-03-14T01:07:04.272Z,75.06
2018-03-14T01:09:31.687Z,75.00
2018-03-14T01:11:59.089Z,74.86
2018-03-14T01:14:26.488Z,74.72
2018-03-14T01:16:53.887Z,74.68
2018-03-14T01:19:21.325Z,74.44
2018-03-14T01:21:48.831Z,74.25
2018-03-14T01:24:16.308Z,74.18
2018-03-14T01:26:43.705Z,74.05
2018-03-14T01:29:11.156Z,73.97
2018-03-14T01:31:38.575Z,73.88
2018-03-14T01:34:05.999Z,73.97
2018-03-14T01:36:33.414Z,73.99
2018-03-14T01:39:01.299Z,73.95
2018-03-14T01:41:28.722Z,73.95
2018-03-14T01:43:56.131Z,74.02
2018-03-14T01:46:23.708Z,74.12
2018-03-14T01:48:51.099Z,74.48
2018-03-14T01:51:18.751Z,74.95
2018-03-14T01:53:46.190Z,75.30
2018-03-14T01:56:13.603Z,75.68
2018-03-14T01:58:41.027Z,75.93
2018-03-14T02:01:08.484Z,76.25
2018-03-14T02:03:35.917Z,76.25
2018-03-14T02:06:03.339Z,76.41
2018-03-14T02:08:30.905Z,76.53
2018-03-14T02:10:58.415Z,76.79
2018-03-14T02:13:25.845Z,76.83
2018-03-14T02:15:54.052Z,76.83
2018-03-14T02:18:21.518Z,77.03
2018-03-14T02:20:48.950Z,77.16
2018-03-14T02:23:16.350Z,77.12
2018-03-14T02:25:44.688Z,77.17
2018-03-14T02:28:12.188Z,77.28
2018-03-14T02:30:39.628Z,77.83
2018-03-14T02:33:07.098Z,78.04
2018-03-14T02:35:34.532Z,77.93
2018-03-14T02:38:01.979Z,77.78
2018-03-14T02:40:29.838Z,77.71
2018-03-14T02:42:57.244Z,77.87
2018-03-14T02:45:25.618Z,78.33
2018-03-14T02:47:53.037Z,78.46
2018-03-14T02:50:20.650Z,78.49
2018-03-14T02:52:48.130Z,78.36
2018-03-14T02:55:15.703Z,78.16
2018-03-14T02:57:43.153Z,78.06
2018-03-14T03:00:10.600Z,78.15
2018-03-14T03:02:38.016Z,78.48
2018-03-14T03:05:05.478Z,78.54
2018-03-14T03:07:32.927Z,78.51
2018-03-14T03:10:00.357Z,78.56
2018-03-14T03:12:28.819Z,78.50
2018-03-14T03:14:56.324Z,78.46
2018-03-14T03:17:23.793Z,78.38
2018-03-14T03:19:51.345Z,78.26
2018-03-14T03:22:18.769Z,78.17
2018-03-14T03:24:46.201Z,78.25
2018-03-14T03:27:13.656Z,78.24
2018-03-14T03:29:41.073Z,77.93
2018-03-14T03:32:08.513Z,77.78
2018-03-14T03:34:35.942Z,77.71
2018-03-14T03:37:03.366Z,77.57
2018-03-14T03:39:30.754Z,77.65
2018-03-14T03:41:58.207Z,78.07
2018-03-14T03:44:25.678Z,78.39
2018-03-14T03:46:53.106Z,78.58
2018-03-14T03:49:20.576Z,78.81
2018-03-14T03:51:48.001Z,78.88
2018-03-14T03:54:15.569Z,78.94
2018-03-14T03:56:43.030Z,78.88
2018-03-14T03:59:10.501Z,78.86
2018-03-14T04:01:37.986Z,78.98
2018-03-14T04:04:05.422Z,78.87
2018-03-14T04:06:32.947Z,78.42
2018-03-14T04:09:00.649Z,78.24
2018-03-14T04:11:28.072Z,78.30
2018-03-14T04:13:56.128Z,78.41
2018-03-14T04:16:23.586Z,78.12
2018-03-14T04:18:50.971Z,77.86
2018-03-14T04:21:18.532Z,77.96
2018-03-14T04:23:45.990Z,77.98
2018-03-14T04:26:13.413Z,77.97
2018-03-14T04:28:40.950Z,77.71
2018-03-14T04:31:08.364Z,77.40
2018-03-14T04:33:35.803Z,77.10
2018-03-14T04:36:03.238Z,76.69
2018-03-14T04:38:30.668Z,76.53
2018-03-14T04:40:58.125Z,76.23
2018-03-14T04:43:25.721Z,76.06
2018-03-14T04:45:53.148Z,75.98
2018-03-14T04:48:20.565Z,76.08
2018-03-14T04:50:47.995Z,76.53
2018-03-14T04:53:15.422Z,76.06
2018-03-14T04:55:42.845Z,75.89
2018-03-14T04:58:11.145Z,76.15
2018-03-14T05:00:38.577Z,76.29
2018-03-14T05:03:06.063Z,76.35
2018-03-14T05:05:33.496Z,76.22
2018-03-14T05:08:00.902Z,75.84
2018-03-14T05:10:28.328Z,75.92
2018-03-14T05:12:55.763Z,75.84
2018-03-14T05:15:23.434Z,75.99
2018-03-14T05:17:50.865Z,76.00
2018-03-14T05:20:18.260Z,75.84
2018-03-14T05:22:46.491Z,75.89
2018-03-14T05:25:13.922Z,75.98
2018-03-14T05:27:41.346Z,75.96
2018-03-14T05:30:08.804Z,75.82
2018-03-14T05:32:36.252Z,75.54
2018-03-14T05:35:03.709Z,75.40
2018-03-14T05:37:31.249Z,75.39
2018-03-14T05:39:58.715Z,75.52
2018-03-14T05:42:26.192Z,75.41
2018-03-14T05:44:53.617Z,75.33
2018-03-14T05:47:21.017Z,75.33
2018-03-14T05:49:48.685Z,75.16
2018-03-14T05:52:16.111Z,75.00
2018-03-14T05:54:43.530Z,75.10
2018-03-14T05:57:11.007Z,74.97
2018-03-14T05:59:39.137Z,74.95
2018-03-14T06:02:06.561Z,74.89
2018-03-14T06:04:34.758Z,74.88
2018-03-14T06:07:02.204Z,74.82
2018-03-14T06:09:29.632Z,74.72
2018-03-14T06:11:57.981Z,74.88
2018-03-14T06:14:25.442Z,74.65
2018-03-14T06:16:52.935Z,74.27
2018-03-14T06:19:20.912Z,74.24
2018-03-14T06:21:48.310Z,74.13
2018-03-14T06:24:15.770Z,74.31
2018-03-14T06:26:43.238Z,74.61
2018-03-14T06:29:10.669Z,74.70
2018-03-14T06:31:38.106Z,74.52
2018-03-14T06:34:05.537Z,74.65
2018-03-14T06:36:33.018Z,74.66
2018-03-14T06:39:00.441Z,74.54
2018-03-14T06:41:27.918Z,74.41
2018-03-14T06:43:55.437Z,74.40
2018-03-14T06:46:22.926Z,74.09
2018-03-14T06:48:50.792Z,73.84
2018-03-14T06:51:18.231Z,73.75
2018-03-14T06:53:45.801Z,73.66
2018-03-14T06:56:13.280Z,73.99
2018-03-14T06:58:52.454Z,73.91
2018-03-14T07:01:32.661Z,73.71
2018-03-14T07:04:12.018Z,73.13
2018-03-14T07:06:39.437Z,73.10
2018-03-14T07:09:06.873Z,72.99
2018-03-14T07:11:34.390Z,72.77
2018-03-14T07:14:01.829Z,72.51
2018-03-14T07:16:29.291Z,72.12
2018-03-14T07:18:56.770Z,71.52
2018-03-14T07:21:24.785Z,70.85
2018-03-14T07:23:52.244Z,71.00
2018-03-14T07:26:19.636Z,70.63
2018-03-14T07:28:47.105Z,70.05
2018-03-14T07:31:14.551Z,70.13
2018-03-14T07:33:42.014Z,69.53
2018-03-14T07:36:09.474Z,68.64
2018-03-14T07:38:36.911Z,69.11
2018-03-14T07:41:04.487Z,69.64
2018-03-14T07:43:31.946Z,69.83
2018-03-14T07:45:59.396Z,70.76
2018-03-14T07:48:26.858Z,70.49
2018-03-14T07:50:54.334Z,70.17
2018-03-14T07:53:21.810Z,70.31
2018-03-14T07:55:49.246Z,70.45
2018-03-14T07:58:16.697Z,70.42
2018-03-14T08:00:44.247Z,69.45
2018-03-14T08:03:11.761Z,68.11
2018-03-14T08:05:39.247Z,65.84
2018-03-14T08:08:06.690Z,64.28
2018-03-14T08:10:34.082Z,64.20
2018-03-14T08:13:01.979Z,65.15
2018-03-14T08:15:29.468Z,66.04
2018-03-14T08:17:56.905Z,66.81
2018-03-14T08:20:24.342Z,66.98
2018-03-14T08:22:51.805Z,66.94
2018-03-14T08:25:19.230Z,67.12
2018-03-14T08:27:46.820Z,66.93
2018-03-14T08:30:14.283Z,66.91
2018-03-14T08:32:41.729Z,66.89
2018-03-14T08:35:09.315Z,67.49
2018-03-14T08:37:36.811Z,67.56
2018-03-14T08:40:04.426Z,68.23
2018-03-14T08:42:31.936Z,68.13
2018-03-14T08:44:59.353Z,67.89
2018-03-14T08:47:26.793Z,67.70
2018-03-14T08:49:54.485Z,67.57
2018-03-14T08:52:21.922Z,67.65
2018-03-14T08:54:49.451Z,67.10
2018-03-14T08:57:17.029Z,66.46
2018-03-14T08:59:44.476Z,65.31
2018-03-14T09:02:12.240Z,61.42
2018-03-14T09:04:39.732Z,59.21
2018-03-14T09:07:07.193Z,60.04
2018-03-14T09:09:34.649Z,59.53
2018-03-14T09:12:02.102Z,59.78
2018-03-14T09:14:29.568Z,60.36
2018-03-14T09:16:57.019Z,61.44
2018-03-14T09:19:24.725Z,61.66
2018-03-14T09:21:52.197Z,61.12
2018-03-14T09:24:19.653Z,61.30
2018-03-14T09:26:48.752Z,60.32
2018-03-14T09:29:16.270Z,59.74
2018-03-14T09:31:43.900Z,58.74
2018-03-14T09:34:11.437Z,57.26
2018-03-14T09:36:38.865Z,56.33
2018-03-14T09:39:06.289Z,54.84
2018-03-14T09:41:33.733Z,54.00
2018-03-14T09:44:01.199Z,54.31
2018-03-14T09:46:28.603Z,55.00
2018-03-14T09:48:56.090Z,53.80
2018-03-14T09:51:23.618Z,52.41
2018-03-14T09:53:51.367Z,50.95
2018-03-14T09:56:18.892Z,49.89
2018-03-14T09:58:46.287Z,48.45
2018-03-14T10:01:13.734Z,47.55
2018-03-14T10:03:41.338Z,47.05
2018-03-14T10:06:08.802Z,47.91
2018-03-14T10:08:36.245Z,47.96
2018-03-14T10:11:03.745Z,47.05
2018-03-14T10:13:31.178Z,46.49
2018-03-14T10:15:58.687Z,45.54
2018-03-14T10:18:26.133Z,45.20
2018-03-14T10:20:53.520Z,44.62
2018-03-14T10:23:20.953Z,44.34
2018-03-14T10:25:48.476Z,43.44
2018-03-14T10:28:15.788Z,44.53
2018-03-14T10:30:43.223Z,44.91
2018-03-14T10:33:10.665Z,45.29
2018-03-14T10:35:38.279Z,45.29
2018-03-14T10:38:05.731Z,44.62
2018-03-14T10:40:33.128Z,44.63
2018-03-14T10:43:00.755Z,45.22
2018-03-14T10:45:28.265Z,45.15
2018-03-14T10:47:55.921Z,45.01
2018-03-14T10:50:23.409Z,45.19
2018-03-14T10:52:51.759Z,44.13
2018-03-14T10:55:19.212Z,44.29
2018-03-14T10:57:46.664Z,43.42
2018-03-14T11:00:19.610Z,42.35
2018-03-14T11:02:53.109Z,42.73
2018-03-14T11:05:20.562Z,43.04
2018-03-14T11:07:48.168Z,43.68
2018-03-14T11:10:15.571Z,44.03
2018-03-14T11:12:43.056Z,43.93
2018-03-14T11:15:10.808Z,44.20
2018-03-14T11:17:38.252Z,44.21
2018-03-14T11:20:05.795Z,43.69
2018-03-14T11:22:33.411Z,44.25
2018-03-14T11:25:00.817Z,44.21
2018-03-14T11:27:28.250Z,44.22
2018-03-14T11:29:55.648Z,44.19
2018-03-14T11:32:23.152Z,44.02
2018-03-14T11:34:50.631Z,43.05
2018-03-14T11:37:18.066Z,42.44
2018-03-14T11:39:46.096Z,42.55
2018-03-14T11:42:13.574Z,42.67
2018-03-14T11:44:41.022Z,41.92
2018-03-14T11:47:08.436Z,42.08
2018-03-14T11:49:35.910Z,42.00
2018-03-14T11:52:03.380Z,41.32
2018-03-14T11:54:31.474Z,40.32
2018-03-14T11:56:58.915Z,40.74
2018-03-14T11:59:26.387Z,41.29
2018-03-14T12:01:53.897Z,40.84
2018-03-14T12:04:21.590Z,38.91
2018-03-14T12:06:49.315Z,39.60
2018-03-14T12:09:16.809Z,38.78
2018-03-14T12:11:44.243Z,38.74
2018-03-14T12:14:11.696Z,38.42
2018-03-14T12:16:39.162Z,37.62
2018-03-14T12:19:06.568Z,36.38
2018-03-14T12:21:35.041Z,35.64
2018-03-14T12:24:02.525Z,35.50
2018-03-14T12:26:31.070Z,36.18
2018-03-14T12:28:58.486Z,36.53
2018-03-14T12:31:25.945Z,37.83
2018-03-14T12:33:53.378Z,38.56
2018-03-14T12:36:20.835Z,38.37
2018-03-14T12:38:48.296Z,38.91
2018-03-14T12:41:15.729Z,38.54
2018-03-14T12:43:43.169Z,38.23
2018-03-14T12:46:10.656Z,38.06
2018-03-14T12:48:38.088Z,37.95
2018-03-14T12:51:05.597Z,38.17
2018-03-14T12:53:33.090Z,38.36
2018-03-14T12:56:00.528Z,38.21
2018-03-14T12:58:28.052Z,38.35
2018-03-14T13:00:55.541Z,38.33
2018-03-14T13:03:23.016Z,38.15
2018-03-14T13:05:50.672Z,37.95
2018-03-14T13:08:18.212Z,38.07
2018-03-14T13:10:45.697Z,37.83
2018-03-14T13:13:13.108Z,38.10
2018-03-14T13:15:40.628Z,38.28
2018-03-14T13:18:08.276Z,37.89
2018-03-14T13:20:35.726Z,38.08
2018-03-14T13:23:03.273Z,37.48
2018-03-14T13:25:30.695Z,36.76
2018-03-14T13:27:58.228Z,36.35
2018-03-14T13:30:25.840Z,35.37
2018-03-14T13:32:53.462Z,35.54
2018-03-14T13:35:21.021Z,35.31
2018-03-14T13:37:48.514Z,35.08
2018-03-14T13:40:16.037Z,34.83
2018-03-14T13:42:43.532Z,34.63
2018-03-14T13:45:10.994Z,34.95
2018-03-14T13:47:38.453Z,34.28
2018-03-14T13:50:05.887Z,33.80
2018-03-14T13:52:33.855Z,33.99
2018-03-14T13:55:01.299Z,34.01
2018-03-14T13:57:28.789Z,34.66
2018-03-14T13:59:56.491Z,34.45
2018-03-14T14:02:24.259Z,34.68
2018-03-14T14:04:51.875Z,34.70
2018-03-14T14:09:53.043Z,35.19
2018-03-14T14:12:20.500Z,35.69
2018-03-14T14:14:48.059Z,36.43
2018-03-14T14:17:15.561Z,36.32
2018-03-14T14:19:43.083Z,35.52
2018-03-14T14:22:10.792Z,34.97
2018-03-14T14:24:38.296Z,35.12
2018-03-14T14:27:06.040Z,33.80
2018-03-14T14:29:33.507Z,34.04
2018-03-14T14:32:00.948Z,34.25
2018-03-14T14:34:28.364Z,34.13
2018-03-14T14:36:56.263Z,33.33
2018-03-14T14:39:23.723Z,33.52
2018-03-14T14:41:51.199Z,33.29
2018-03-14T14:44:18.674Z,33.54
2018-03-14T14:46:46.163Z,33.40
2018-03-14T14:49:13.583Z,33.56
2018-03-14T14:51:41.066Z,34.03
2018-03-14T14:54:08.618Z,33.36
2018-03-14T14:56:36.022Z,33.16
2018-03-14T14:59:03.478Z,33.32
2018-03-14T15:01:31.142Z,33.92
2018-03-14T15:03:58.639Z,34.45
2018-03-14T15:06:26.116Z,35.91
2018-03-14T15:08:54.085Z,35.74
2018-03-14T15:11:21.844Z,35.23
2018-03-14T15:13:49.305Z,34.62
2018-03-14T15:16:16.807Z,34.67
2018-03-14T15:18:44.377Z,35.31
2018-03-14T15:21:11.899Z,35.77
2018-03-14T15:23:39.335Z,35.89
2018-03-14T15:26:06.884Z,35.77
2018-03-14T15:28:34.304Z,36.29
2018-03-14T15:31:01.781Z,36.20
2018-03-14T15:33:29.217Z,35.83
2018-03-14T15:35:56.784Z,35.97
2018-03-14T15:38:24.375Z,36.16
2018-03-14T15:40:51.914Z,36.15
2018-03-14T15:43:19.386Z,35.96
2018-03-14T15:45:46.886Z,36.30
2018-03-14T15:48:14.318Z,36.39
2018-03-14T15:50:41.727Z,36.50
2018-03-14T15:53:09.189Z,36.47
2018-03-14T15:55:36.607Z,36.15
2018-03-14T15:58:04.216Z,35.46
2018-03-14T16:00:31.624Z,35.37
2018-03-14T16:02:59.085Z,35.82
2018-03-14T16:05:26.557Z,36.27
2018-03-14T16:07:53.988Z,36.34
2018-03-14T16:10:21.839Z,35.93
2018-03-14T16:12:49.329Z,35.70
2018-03-14T16:15:16.793Z,35.73
2018-03-14T16:17:44.258Z,36.34
2018-03-14T16:20:11.802Z,36.33
2018-03-14T16:22:39.246Z,36.27
2018-03-14T16:25:06.733Z,37.11
2018-03-14T16:27:34.355Z,37.80
2018-03-14T16:30:01.846Z,38.22
2018-03-14T16:32:29.436Z,38.43
2018-03-14T16:34:57.014Z,38.54
2018-03-14T16:37:24.471Z,38.35
2018-03-14T16:39:51.868Z,37.92
2018-03-14T16:42:20.539Z,38.32
2018-03-14T16:44:48.487Z,38.68
2018-03-14T16:47:15.928Z,38.28
2018-03-14T16:49:43.454Z,38.45
2018-03-14T16:52:11.204Z,38.68
2018-03-14T16:54:38.649Z,39.70
2018-03-14T16:57:06.469Z,39.68
2018-03-14T16:59:34.331Z,39.46
2018-03-14T17:02:01.965Z,40.04
2018-03-14T17:04:29.463Z,40.17
2018-03-14T17:06:56.868Z,39.67
2018-03-14T17:09:24.807Z,38.86
2018-03-14T17:11:52.221Z,39.85
2018-03-14T17:14:27.135Z,40.77
2018-03-14T17:16:47.113Z,41.44
2018-03-14T17:19:14.594Z,41.81
2018-03-14T17:21:42.004Z,42.34
2018-03-14T17:24:09.442Z,42.60
2018-03-14T17:26:37.025Z,43.22
2018-03-14T17:29:04.460Z,43.73
2018-03-14T17:31:31.898Z,43.61
2018-03-14T17:33:59.286Z,43.66
2018-03-14T17:36:26.850Z,43.91
2018-03-14T17:38:54.357Z,44.34
2018-03-14T17:41:21.838Z,44.86
2018-03-14T17:43:49.346Z,45.08
2018-03-14T17:46:16.808Z,45.35
2018-03-14T17:48:44.303Z,45.95
2018-03-14T17:51:11.791Z,46.45
2018-03-14T17:53:39.238Z,46.94
2018-03-14T17:56:07.249Z,47.50
2018-03-14T17:58:34.689Z,48.12
2018-03-14T18:01:02.328Z,48.28
2018-03-14T18:03:29.762Z,48.42
2018-03-14T18:05:57.228Z,48.70
2018-03-14T18:08:24.682Z,48.84
2018-03-14T18:10:52.175Z,48.64
2018-03-14T18:13:19.795Z,48.41
2018-03-14T18:18:21.678Z,48.11
2018-03-14T18:20:49.371Z,48.01
2018-03-14T18:23:16.904Z,48.06
2018-03-14T18:25:44.541Z,48.30
2018-03-14T18:28:11.989Z,48.40
2018-03-14T18:30:40.229Z,48.57
2018-03-14T18:33:07.703Z,48.83
2018-03-14T18:35:35.233Z,49.32
2018-03-14T18:38:03.163Z,49.53
2018-03-14T18:40:31.492Z,50.34
2018-03-14T18:42:58.888Z,50.57
2018-03-14T18:45:26.349Z,50.84
2018-03-14T18:47:54.434Z,51.42
2018-03-14T18:50:21.858Z,51.63
2018-03-14T18:52:49.245Z,52.11
2018-03-14T18:55:16.784Z,52.75
2018-03-14T18:57:44.383Z,53.15
2018-03-14T19:00:12.094Z,53.52
2018-03-14T19:02:40.421Z,53.94
2018-03-14T19:05:07.943Z,54.28
2018-03-14T19:07:35.393Z,54.78
2018-03-14T19:10:02.885Z,54.82
2018-03-14T19:12:30.321Z,54.94
2018-03-14T19:14:57.871Z,55.44
2018-03-14T19:17:25.334Z,55.92
2018-03-14T19:19:52.823Z,56.19
2018-03-14T19:22:20.280Z,56.48
2018-03-14T19:24:47.788Z,56.79
2018-03-14T19:27:15.374Z,57.25
2018-03-14T19:29:43.014Z,57.87
2018-03-14T19:32:10.889Z,58.21
2018-03-14T19:34:38.381Z,58.60
2018-03-14T19:37:05.806Z,58.87
2018-03-14T19:39:33.287Z,59.06
2018-03-14T19:42:00.732Z,59.24
2018-03-14T19:44:28.262Z,59.25
2018-03-14T19:46:55.776Z,59.37
2018-03-14T19:49:23.283Z,59.11
2018-03-14T19:51:50.668Z,58.84
2018-03-14T19:54:18.301Z,59.07
2018-03-14T19:56:45.812Z,58.88
2018-03-14T19:59:13.489Z,58.79
2018-03-14T20:01:41.599Z,59.10
2018-03-14T20:04:09.216Z,59.27
2018-03-14T20:06:37.207Z,59.46
2018-03-14T20:09:04.822Z,59.81
2018-03-14T20:11:32.286Z,60.28
2018-03-14T20:13:59.762Z,60.47
2018-03-14T20:16:27.255Z,60.55
2018-03-14T20:18:54.794Z,60.72
2018-03-14T20:21:22.220Z,60.67
2018-03-14T20:23:49.695Z,60.69
2018-03-14T20:26:17.226Z,60.70
2018-03-14T20:28:44.667Z,60.55
2018-03-14T20:31:12.264Z,60.35
2018-03-14T20:33:40.773Z,60.40
2018-03-14T20:36:08.948Z,60.26
2018-03-14T20:38:36.523Z,60.28
2018-03-14T20:41:04.142Z,60.20
2018-03-14T20:43:31.627Z,60.08
2018-03-14T20:45:59.181Z,60.09
2018-03-14T20:48:27.415Z,60.24
2018-03-14T20:50:54.856Z,60.20
2018-03-14T20:53:22.534Z,60.19
2018-03-14T20:55:50.133Z,60.21
2018-03-14T20:58:17.578Z,60.12
2018-03-14T21:00:45.554Z,60.19
2018-03-14T21:03:13.116Z,60.33
2018-03-14T21:05:40.552Z,60.41
2018-03-14T21:08:08.338Z,60.42
2018-03-14T21:10:35.782Z,60.71
2018-03-14T21:13:03.757Z,60.80
2018-03-14T21:15:31.156Z,60.61
2018-03-14T21:17:58.569Z,60.54
2018-03-14T21:20:26.501Z,60.60
2018-03-14T21:22:53.958Z,60.67
2018-03-14T21:25:21.394Z,60.62
2018-03-14T21:27:48.936Z,60.62
2018-03-14T21:30:16.454Z,60.85
2018-03-14T21:32:43.881Z,60.98
2018-03-14T21:35:11.302Z,61.10
2018-03-14T21:37:38.730Z,61.31
2018-03-14T21:40:06.185Z,61.44
2018-03-14T21:42:33.626Z,61.60
2018-03-14T21:45:01.098Z,61.69
2018-03-14T21:47:28.542Z,61.96
2018-03-14T21:49:55.927Z,62.00
2018-03-14T21:52:23.568Z,62.43
2018-03-14T21:54:51.005Z,62.52
2018-03-14T21:57:19.352Z,62.48
2018-03-14T21:59:46.805Z,62.58
2018-03-14T22:02:14.228Z,62.95
2018-03-14T22:04:41.695Z,63.00
2018-03-14T22:07:09.218Z,62.75
2018-03-14T22:09:36.732Z,62.50
2018-03-14T22:12:04.246Z,62.52
2018-03-14T22:14:31.820Z,62.73
2018-03-14T22:16:59.103Z,62.73
2018-03-14T22:19:26.831Z,62.67
2018-03-14T22:21:55.130Z,62.47
2018-03-14T22:24:22.676Z,62.74
2018-03-14T22:26:50.366Z,63.10
2018-03-14T22:29:17.812Z,63.23
2018-03-14T22:31:45.273Z,63.39
2018-03-14T22:34:12.741Z,63.52
2018-03-14T22:36:40.151Z,63.75
2018-03-14T22:39:07.588Z,63.84
2018-03-14T22:41:34.983Z,64.07
2018-03-14T22:44:02.430Z,64.27
2018-03-14T22:46:29.895Z,64.51
2018-03-14T22:48:57.284Z,64.54
2018-03-14T22:51:24.772Z,64.36
2018-03-14T22:53:52.202Z,64.36
2018-03-14T22:56:19.673Z,64.41
2018-03-14T22:58:47.129Z,64.49
2018-03-14T23:01:14.573Z,64.39
2018-03-14T23:03:42.164Z,64.80
2018-03-14T23:06:10.411Z,64.92
2018-03-14T23:08:38.024Z,65.00
2018-03-14T23:11:05.441Z,65.11
2018-03-14T23:13:32.937Z,65.19
2018-03-14T23:16:00.423Z,65.03
2018-03-14T23:18:27.924Z,65.29
2018-03-14T23:20:55.402Z,65.38
2018-03-14T23:23:22.908Z,65.04
2018-03-14T23:25:50.358Z,64.73
2018-03-14T23:28:17.770Z,64.84
2018-03-14T23:30:45.251Z,64.89
2018-03-14T23:33:13.234Z,64.91
2018-03-14T23:35:40.761Z,64.92
2018-03-14T23:38:08.312Z,65.03
2018-03-14T23:40:35.769Z,65.01
2018-03-14T23:43:03.235Z,64.99
2018-03-14T23:45:30.722Z,64.96
2018-03-14T23:47:58.122Z,65.10
2018-03-14T23:50:25.544Z,65.06
2018-03-14T23:52:52.999Z,65.18
2018-03-14T23:55:20.484Z,65.11
2018-03-14T23:57:48.067Z,64.92
